createdAt,value
2022-11-18T00:03:13.032Z,26.6
2022-11-18T00:08:35.038Z,26.4
2022-11-18T00:14:12.321Z,26.3
2022-11-18T00:19:51.482Z,26.7
2022-11-18T00:25:32.711Z,27
2022-11-18T00:31:09.486Z,26.9
2022-11-18T00:36:46.064Z,26.5
2022-11-18T00:42:09.242Z,26.3
2022-11-18T00:47:46.578Z,26.1
2022-11-18T00:53:08.905Z,25.9
2022-11-18T00:58:46.248Z,26.1
2022-11-18T01:04:09.921Z,26.4
2022-11-18T01:09:32.317Z,26.6
2022-11-18T01:14:54.835Z,26.3
2022-11-18T01:20:16.933Z,26
2022-11-18T01:25:39.232Z,25.8
2022-11-18T01:31:20.950Z,25.6
2022-11-18T01:37:15.301Z,25.6
2022-11-18T01:42:53.049Z,25.9
2022-11-18T01:48:15.734Z,26.3
2022-11-18T01:53:42.904Z,26.1
2022-11-18T01:58:48.985Z,25.9
2022-11-18T02:04:29.176Z,25.6
2022-11-18T02:10:07.421Z,25.5
2022-11-18T02:15:45.749Z,25.3
2022-11-18T02:21:23.894Z,25.4
2022-11-18T02:27:00.622Z,25.8
2022-11-18T02:32:07.505Z,26
2022-11-18T02:37:28.852Z,25.8
2022-11-18T02:43:06.524Z,25.5
2022-11-18T02:48:44.384Z,25.3
2022-11-18T02:54:22.156Z,25.1
2022-11-18T02:59:59.979Z,25.1
2022-11-18T03:05:37.293Z,25.3
2022-11-18T03:11:00.364Z,25.8
2022-11-18T03:16:06.911Z,25.8
2022-11-18T03:21:28.888Z,25.4
2022-11-18T03:26:50.924Z,25.3
2022-11-18T03:32:13.279Z,25.1
2022-11-18T03:37:44.689Z,25
2022-11-18T03:43:22.574Z,25.1
2022-11-18T03:49:06.188Z,25.4
2022-11-18T03:54:29.017Z,25.8
2022-11-18T04:00:11.985Z,25.5
2022-11-18T04:05:49.112Z,25.3
2022-11-18T04:11:26.867Z,25.1
2022-11-18T04:17:05.248Z,24.9
2022-11-18T04:22:43.153Z,25
2022-11-18T04:28:05.425Z,25.3
2022-11-18T04:33:43.143Z,25.7
2022-11-18T04:39:12.155Z,25.4
2022-11-18T04:44:49.911Z,25.1
2022-11-18T04:50:33.066Z,25
2022-11-18T04:56:10.583Z,24.9
2022-11-18T05:01:53.500Z,24.9
2022-11-18T05:07:15.989Z,25.3
2022-11-18T05:12:38.898Z,25.6
2022-11-18T05:18:02.410Z,25.3
2022-11-18T05:23:28.520Z,24.9
2022-11-18T05:29:06.261Z,24.8
2022-11-18T05:34:29.076Z,24.7
2022-11-18T05:39:54.228Z,24.6
2022-11-18T05:45:33.005Z,24.4
2022-11-18T05:51:12.309Z,24.3
2022-11-18T05:56:50.409Z,24.1
2022-11-18T06:02:28.680Z,24.6
2022-11-18T06:08:07.903Z,24.9
2022-11-18T06:13:46.237Z,24.8
2022-11-18T06:19:27.409Z,24.5
2022-11-18T06:25:05.322Z,24.3
2022-11-18T06:30:49.440Z,24.1
2022-11-18T06:36:27.079Z,24
2022-11-18T06:42:11.844Z,23.9
2022-11-18T06:47:35.688Z,23.8
2022-11-18T06:52:58.345Z,24.3
2022-11-18T06:58:41.642Z,24.7
2022-11-18T07:04:20.329Z,24.6
2022-11-18T07:09:57.350Z,24.3
2022-11-18T07:15:40.300Z,24.1
2022-11-18T07:21:17.440Z,24
2022-11-18T07:26:55.168Z,23.9
2022-11-18T07:32:33.764Z,23.8
2022-11-18T07:38:15.850Z,23.7
2022-11-18T07:43:59.095Z,24.1
2022-11-18T07:49:38.348Z,24.5
2022-11-18T07:55:18.009Z,24.5
2022-11-18T08:00:56.491Z,24.2
2022-11-18T08:06:41.478Z,24
2022-11-18T08:12:23.300Z,23.9
2022-11-18T08:18:00.739Z,23.8
2022-11-18T08:23:42.938Z,23.7
2022-11-18T08:29:24.915Z,23.7
2022-11-18T08:35:05.429Z,23.9
2022-11-18T08:40:30.239Z,24.5
2022-11-18T08:45:55.355Z,24.4
2022-11-18T08:51:33.526Z,24.1
2022-11-18T08:57:11.691Z,23.9
2022-11-18T09:02:48.822Z,23.8
2022-11-18T09:08:26.750Z,23.7
2022-11-18T09:15:40.480Z,23.6
2022-11-18T09:21:45.279Z,23.6
2022-11-18T09:27:30.186Z,24
2022-11-18T09:33:07.972Z,24.5
2022-11-18T09:38:49.945Z,24.2
2022-11-18T09:44:29.758Z,23.9
2022-11-18T09:50:34.273Z,23.8
2022-11-18T09:56:32.722Z,23.6
2022-11-18T10:02:11.070Z,23.6
2022-11-18T10:07:49.173Z,23.4
2022-11-18T10:13:32.007Z,23.3
2022-11-18T10:19:35.364Z,23.3
2022-11-18T10:25:23.453Z,23.2
2022-11-18T10:30:46.236Z,23.1
2022-11-18T10:36:08.353Z,23.3
2022-11-18T10:42:15.631Z,23.6
2022-11-18T10:47:38.753Z,24.1
2022-11-18T10:53:23.789Z,23.8
2022-11-18T10:59:07.054Z,23.6
2022-11-18T11:04:47.677Z,23.5
2022-11-18T11:10:35.383Z,23.4
2022-11-18T11:16:14.678Z,23.3
2022-11-18T11:21:53.739Z,23.3
2022-11-18T11:29:24.183Z,23.2
2022-11-18T11:35:02.064Z,23.1
2022-11-18T11:40:45.171Z,23.1
2022-11-18T11:46:07.481Z,23.1
2022-11-18T11:51:53.945Z,23.4
2022-11-18T11:57:16.540Z,23.9
2022-11-18T12:02:55.172Z,23.8
2022-11-18T12:08:40.368Z,23.6
2022-11-18T12:14:18.539Z,23.4
2022-11-18T12:20:01.395Z,23.3
2022-11-18T12:25:40.126Z,23.3
2022-11-18T12:31:18.488Z,23.2
2022-11-18T12:36:55.996Z,23.1
2022-11-18T12:42:34.234Z,23.1
2022-11-18T12:48:12.369Z,23
2022-11-18T12:53:35.712Z,22.9
2022-11-18T12:59:01.764Z,23.1
2022-11-18T13:04:45.189Z,23.3
2022-11-18T13:10:24.985Z,23.8
2022-11-18T13:16:03.801Z,23.6
2022-11-18T13:21:42.322Z,23.4
2022-11-18T13:26:49.093Z,23.3
2022-11-18T13:32:26.415Z,23.2
2022-11-18T13:38:04.226Z,23.1
2022-11-18T13:43:34.122Z,23.1
2022-11-18T13:49:16.327Z,23
2022-11-18T13:54:55.032Z,22.9
2022-11-18T14:00:33.663Z,22.9
2022-11-18T14:05:40.997Z,23
2022-11-18T14:11:19.788Z,23.2
2022-11-18T14:16:58.853Z,23.7
2022-11-18T14:22:38.687Z,23.5
2022-11-18T14:28:16.993Z,23.3
2022-11-18T14:33:39.595Z,23.2
2022-11-18T14:40:17.227Z,23.1
2022-11-18T14:45:28.478Z,23.1
2022-11-18T14:51:06.994Z,23
2022-11-18T14:56:53.540Z,22.9
2022-11-18T15:02:37.804Z,22.9
2022-11-18T15:07:45.869Z,22.9
2022-11-18T15:13:08.265Z,22.8
2022-11-18T15:18:31.367Z,22.9
2022-11-18T15:24:09.080Z,23.2
2022-11-18T15:29:47.465Z,23.5
2022-11-18T15:35:30.857Z,23.3
2022-11-18T15:40:53.248Z,23.1
2022-11-18T15:46:28.581Z,23.1
2022-11-18T15:52:08.615Z,22.9
2022-11-18T15:57:36.549Z,22.9
2022-11-18T16:03:04.435Z,22.9
2022-11-18T16:08:29.228Z,22.8
2022-11-18T16:13:52.121Z,22.8
2022-11-18T16:19:31.534Z,22.8
2022-11-18T16:25:10.075Z,22.7
2022-11-18T16:30:54.870Z,22.6
2022-11-18T16:36:40.061Z,22.8
2022-11-18T16:42:24.846Z,23.2
2022-11-18T16:48:08.324Z,23.4
2022-11-18T16:53:31.354Z,23.1
2022-11-18T16:59:00.990Z,23
2022-11-18T17:05:20.670Z,22.9
2022-11-18T17:10:43.952Z,22.9
2022-11-18T17:16:10.935Z,22.8
2022-11-18T17:21:38.173Z,22.8
2022-11-18T17:27:03.126Z,22.8
2022-11-18T17:32:31.025Z,22.7
2022-11-18T17:37:57.426Z,22.6
2022-11-18T17:43:20.474Z,22.6
2022-11-18T17:48:50.591Z,22.7
2022-11-18T17:54:34.240Z,22.9
2022-11-18T18:00:17.986Z,23.4
2022-11-18T18:05:58.582Z,23.2
2022-11-18T18:11:27.514Z,23
2022-11-18T18:16:56.564Z,22.9
2022-11-18T18:22:36.391Z,22.9
2022-11-18T18:28:15.299Z,22.8
2022-11-18T18:33:59.647Z,22.8
2022-11-18T18:39:07.237Z,22.8
2022-11-18T18:44:18.474Z,22.8
2022-11-18T18:49:57.903Z,22.7
2022-11-18T18:55:40.531Z,22.7
2022-11-18T19:01:14.580Z,22.8
2022-11-18T19:08:06.511Z,23.4
2022-11-18T19:13:31.062Z,23.1
2022-11-18T19:18:55.719Z,23
2022-11-18T19:24:42.746Z,22.9
2022-11-18T19:30:32.647Z,22.9
2022-11-18T19:35:57.839Z,22.8
2022-11-18T19:41:37.817Z,22.8
2022-11-18T19:47:22.417Z,22.8
2022-11-18T19:53:02.365Z,22.7
2022-11-18T19:58:48.987Z,22.7
2022-11-18T20:04:28.963Z,22.6
2022-11-18T20:10:09.507Z,22.7
2022-11-18T20:15:53.947Z,23.2
2022-11-18T20:21:48.164Z,23.1
2022-11-18T20:27:27.912Z,22.9
2022-11-18T20:32:57.015Z,22.9
2022-11-18T20:38:21.685Z,22.8
2022-11-18T20:44:01.371Z,22.8
2022-11-18T20:49:11.437Z,22.7
2022-11-18T20:54:35.998Z,22.6
2022-11-18T20:59:28.579Z,22.6
2022-11-18T21:05:07.751Z,22.6
2022-11-18T21:10:47.470Z,22.5
2022-11-18T21:16:27.780Z,22.5
2022-11-18T21:22:07.384Z,22.6
2022-11-18T21:27:52.895Z,22.9
2022-11-18T21:33:35.989Z,23.3
2022-11-18T21:39:19.198Z,23.1
2022-11-18T21:45:29.796Z,22.9
2022-11-18T21:51:13.931Z,22.8
2022-11-18T21:56:36.781Z,22.8
2022-11-18T22:02:03.800Z,22.7
2022-11-18T22:07:41.439Z,22.7
2022-11-18T22:13:03.745Z,22.7
2022-11-18T22:18:42.047Z,22.7
2022-11-18T22:24:26.094Z,22.7
2022-11-18T22:30:06.256Z,22.7
2022-11-18T22:35:44.474Z,22.6
2022-11-18T22:41:22.868Z,22.9
2022-11-18T22:47:06.291Z,23.3
2022-11-18T22:52:44.610Z,23.1
2022-11-18T23:00:32.963Z,23
2022-11-18T23:07:36.551Z,22.9
2022-11-18T23:13:21.889Z,22.9
2022-11-18T23:18:46.544Z,22.9
2022-11-18T23:24:11.607Z,22.9
2022-11-18T23:29:52.184Z,22.9
2022-11-18T23:35:31.612Z,22.9
2022-11-18T23:40:55.769Z,22.9
2022-11-18T23:46:18.723Z,22.8
2022-11-18T23:52:02.837Z,22.6
2022-11-18T23:57:45.207Z,23.3
